sensor_id;sensor_type;location;lat;lon;timestamp;P1;durP1;ratioP1;P2;durP2;ratioP2
13733;SDS011;43298;52.560;13.508;2023-03-01T00:02:20;20.10;;;19.30;;
13733;SDS011;43298;52.560;13.508;2023-03-01T00:04:47;22.50;;;21.50;;
13733;SDS011;43298;52.560;13.508;2023-03-01T00:07:13;20.90;;;20.00;;
13733;SDS011;43298;52.560;13.508;2023-03-01T00:09:38;20.25;;;19.42;;
13733;SDS011;43298;52.560;13.508;2023-03-01T00:12:05;19.25;;;18.45;;
13733;SDS011;43298;52.560;13.508;2023-03-01T00:14:31;20.67;;;19.80;;
13733;SDS011;43298;52.560;13.508;2023-03-01T00:16:57;20.25;;;19.42;;
13733;SDS011;43298;52.560;13.508;2023-03-01T00:19:23;20.17;;;19.38;;
13733;SDS011;43298;52.560;13.508;2023-03-01T00:21:49;19.85;;;19.05;;
13733;SDS011;43298;52.560;13.508;2023-03-01T00:24:15;19.48;;;18.67;;
13733;SDS011;43298;52.560;13.508;2023-03-01T00:26:41;19.27;;;18.48;;
13733;SDS011;43298;52.560;13.508;2023-03-01T00:29:07;19.92;;;19.13;;
13733;SDS011;43298;52.560;13.508;2023-03-01T00:31:33;19.77;;;18.98;;
13733;SDS011;43298;52.560;13.508;2023-03-01T00:34:00;19.33;;;18.52;;
13733;SDS011;43298;52.560;13.508;2023-03-01T00:36:29;20.50;;;19.65;;
13733;SDS011;43298;52.560;13.508;2023-03-01T00:38:59;20.73;;;19.85;;
13733;SDS011;43298;52.560;13.508;2023-03-01T00:41:26;20.13;;;19.33;;
13733;SDS011;43298;52.560;13.508;2023-03-01T00:43:52;19.80;;;19.00;;
13733;SDS011;43298;52.560;13.508;2023-03-01T00:46:20;19.77;;;18.98;;
13733;SDS011;43298;52.560;13.508;2023-03-01T00:48:48;20.70;;;19.83;;
13733;SDS011;43298;52.560;13.508;2023-03-01T00:51:19;19.83;;;19.02;;
13733;SDS011;43298;52.560;13.508;2023-03-01T00:53:51;19.83;;;19.02;;
13733;SDS011;43298;52.560;13.508;2023-03-01T00:56:22;19.42;;;18.63;;
13733;SDS011;43298;52.560;13.508;2023-03-01T00:58:48;19.92;;;19.13;;
13733;SDS011;43298;52.560;13.508;2023-03-01T01:01:16;20.40;;;19.55;;
13733;SDS011;43298;52.560;13.508;2023-03-01T01:03:51;19.60;;;18.80;;
13733;SDS011;43298;52.560;13.508;2023-03-01T01:06:24;22.00;;;20.67;;
13733;SDS011;43298;52.560;13.508;2023-03-01T01:08:54;17.27;;;16.58;;
13733;SDS011;43298;52.560;13.508;2023-03-01T01:11:21;19.80;;;19.00;;
13733;SDS011;43298;52.560;13.508;2023-03-01T01:13:52;21.05;;;20.15;;
13733;SDS011;43298;52.560;13.508;2023-03-01T01:16:19;19.83;;;19.00;;
13733;SDS011;43298;52.560;13.508;2023-03-01T01:18:48;20.25;;;19.13;;
13733;SDS011;43298;52.560;13.508;2023-03-01T01:21:15;20.15;;;18.83;;
13733;SDS011;43298;52.560;13.508;2023-03-01T01:23:44;18.98;;;18.17;;
13733;SDS011;43298;52.560;13.508;2023-03-01T01:26:15;20.90;;;20.00;;
13733;SDS011;43298;52.560;13.508;2023-03-01T01:28:44;19.48;;;18.67;;
13733;SDS011;43298;52.560;13.508;2023-03-01T01:31:11;19.98;;;19.17;;
13733;SDS011;43298;52.560;13.508;2023-03-01T01:33:37;19.88;;;19.08;;
13733;SDS011;43298;52.560;13.508;2023-03-01T01:36:06;19.42;;;18.63;;
13733;SDS011;43298;52.560;13.508;2023-03-01T01:38:34;20.08;;;19.27;;
13733;SDS011;43298;52.560;13.508;2023-03-01T01:41:02;19.10;;;18.30;;
13733;SDS011;43298;52.560;13.508;2023-03-01T01:43:30;18.45;;;17.65;;
13733;SDS011;43298;52.560;13.508;2023-03-01T01:46:02;18.98;;;18.17;;
13733;SDS011;43298;52.560;13.508;2023-03-01T01:48:52;18.20;;;17.45;;
13733;SDS011;43298;52.560;13.508;2023-03-01T01:51:26;19.63;;;18.83;;
13733;SDS011;43298;52.560;13.508;2023-03-01T01:54:03;19.75;;;18.95;;
13733;SDS011;43298;52.560;13.508;2023-03-01T01:56:55;20.38;;;19.58;;
13733;SDS011;43298;52.560;13.508;2023-03-01T01:59:26;19.90;;;19.10;;
13733;SDS011;43298;52.560;13.508;2023-03-01T02:01:55;20.75;;;19.85;;
13733;SDS011;43298;52.560;13.508;2023-03-01T02:04:26;19.48;;;18.67;;
13733;SDS011;43298;52.560;13.508;2023-03-01T02:07:26;20.23;;;19.42;;
13733;SDS011;43298;52.560;13.508;2023-03-01T02:09:49;20.10;;;19.30;;
13733;SDS011;43298;52.560;13.508;2023-03-01T02:12:18;19.05;;;18.25;;
13733;SDS011;43298;52.560;13.508;2023-03-01T02:14:48;18.15;;;17.40;;
13733;SDS011;43298;52.560;13.508;2023-03-01T02:17:15;20.15;;;19.35;;
13733;SDS011;43298;52.560;13.508;2023-03-01T02:22:39;19.17;;;18.38;;
13733;SDS011;43298;52.560;13.508;2023-03-01T02:30:48;18.17;;;17.40;;
13733;SDS011;43298;52.560;13.508;2023-03-01T02:33:34;20.95;;;20.05;;
13733;SDS011;43298;52.560;13.508;2023-03-01T02:36:08;21.60;;;20.67;;
13733;SDS011;43298;52.560;13.508;2023-03-01T02:38:42;20.25;;;19.45;;
13733;SDS011;43298;52.560;13.508;2023-03-01T02:41:08;19.98;;;19.17;;
13733;SDS011;43298;52.560;13.508;2023-03-01T02:43:38;20.45;;;19.65;;
13733;SDS011;43298;52.560;13.508;2023-03-01T02:46:06;19.70;;;18.90;;
13733;SDS011;43298;52.560;13.508;2023-03-01T02:48:46;20.55;;;19.67;;
13733;SDS011;43298;52.560;13.508;2023-03-01T02:54:25;18.80;;;18.00;;
13733;SDS011;43298;52.560;13.508;2023-03-01T02:56:59;20.45;;;19.63;;
13733;SDS011;43298;52.560;13.508;2023-03-01T02:59:27;19.10;;;18.30;;
13733;SDS011;43298;52.560;13.508;2023-03-01T03:01:59;19.80;;;19.00;;
13733;SDS011;43298;52.560;13.508;2023-03-01T03:04:26;20.85;;;19.95;;
13733;SDS011;43298;52.560;13.508;2023-03-01T03:06:51;19.75;;;18.95;;
13733;SDS011;43298;52.560;13.508;2023-03-01T03:09:17;21.02;;;20.13;;
13733;SDS011;43298;52.560;13.508;2023-03-01T03:11:44;19.63;;;18.83;;
13733;SDS011;43298;52.560;13.508;2023-03-01T03:14:11;20.27;;;19.48;;
13733;SDS011;43298;52.560;13.508;2023-03-01T03:16:40;21.25;;;20.33;;
13733;SDS011;43298;52.560;13.508;2023-03-01T03:19:14;19.75;;;18.95;;
13733;SDS011;43298;52.560;13.508;2023-03-01T03:21:42;20.15;;;19.35;;
13733;SDS011;43298;52.560;13.508;2023-03-01T03:24:08;21.45;;;20.55;;
13733;SDS011;43298;52.560;13.508;2023-03-01T03:26:33;22.25;;;21.25;;
13733;SDS011;43298;52.560;13.508;2023-03-01T03:28:59;20.05;;;19.25;;
13733;SDS011;43298;52.560;13.508;2023-03-01T03:31:25;21.52;;;20.63;;
13733;SDS011;43298;52.560;13.508;2023-03-01T03:33:51;19.73;;;18.92;;
13733;SDS011;43298;52.560;13.508;2023-03-01T03:36:18;20.38;;;19.58;;
13733;SDS011;43298;52.560;13.508;2023-03-01T03:38:46;20.60;;;19.73;;
13733;SDS011;43298;52.560;13.508;2023-03-01T03:41:13;22.83;;;21.83;;
13733;SDS011;43298;52.560;13.508;2023-03-01T03:43:40;19.45;;;18.65;;
13733;SDS011;43298;52.560;13.508;2023-03-01T03:46:08;19.48;;;18.67;;
13733;SDS011;43298;52.560;13.508;2023-03-01T03:48:38;21.23;;;20.33;;
13733;SDS011;43298;52.560;13.508;2023-03-01T03:51:09;21.13;;;20.23;;
13733;SDS011;43298;52.560;13.508;2023-03-01T03:53:41;20.85;;;19.95;;
13733;SDS011;43298;52.560;13.508;2023-03-01T03:56:07;20.90;;;20.00;;
13733;SDS011;43298;52.560;13.508;2023-03-01T03:58:34;19.85;;;19.02;;
13733;SDS011;43298;52.560;13.508;2023-03-01T04:01:00;21.02;;;20.13;;
13733;SDS011;43298;52.560;13.508;2023-03-01T04:03:27;21.88;;;20.88;;
13733;SDS011;43298;52.560;13.508;2023-03-01T04:05:56;21.25;;;20.35;;
13733;SDS011;43298;52.560;13.508;2023-03-01T04:08:24;20.88;;;19.98;;
13733;SDS011;43298;52.560;13.508;2023-03-01T04:10:52;20.85;;;19.95;;
13733;SDS011;43298;52.560;13.508;2023-03-01T04:13:24;21.08;;;20.13;;
13733;SDS011;43298;52.560;13.508;2023-03-01T04:15:50;21.38;;;20.13;;
13733;SDS011;43298;52.560;13.508;2023-03-01T04:18:19;20.95;;;20.05;;
13733;SDS011;43298;52.560;13.508;2023-03-01T04:20:48;20.95;;;20.05;;
13733;SDS011;43298;52.560;13.508;2023-03-01T04:23:15;21.02;;;20.13;;
13733;SDS011;43298;52.560;13.508;2023-03-01T04:25:48;21.00;;;20.10;;
13733;SDS011;43298;52.560;13.508;2023-03-01T04:28:33;20.25;;;19.45;;
13733;SDS011;43298;52.560;13.508;2023-03-01T04:31:06;19.88;;;19.08;;
13733;SDS011;43298;52.560;13.508;2023-03-01T04:33:41;21.30;;;20.40;;
13733;SDS011;43298;52.560;13.508;2023-03-01T04:36:19;21.75;;;20.85;;
13733;SDS011;43298;52.560;13.508;2023-03-01T04:38:48;21.02;;;20.13;;
13733;SDS011;43298;52.560;13.508;2023-03-01T04:41:15;20.55;;;19.65;;
13733;SDS011;43298;52.560;13.508;2023-03-01T04:43:44;21.38;;;20.48;;
13733;SDS011;43298;52.560;13.508;2023-03-01T04:46:13;20.33;;;19.52;;
13733;SDS011;43298;52.560;13.508;2023-03-01T04:48:42;19.60;;;18.80;;
13733;SDS011;43298;52.560;13.508;2023-03-01T04:51:10;20.33;;;19.52;;
13733;SDS011;43298;52.560;13.508;2023-03-01T04:53:38;21.50;;;20.60;;
13733;SDS011;43298;52.560;13.508;2023-03-01T04:56:05;20.02;;;19.23;;
13733;SDS011;43298;52.560;13.508;2023-03-01T04:58:31;21.40;;;20.50;;
13733;SDS011;43298;52.560;13.508;2023-03-01T05:00:57;21.73;;;20.83;;
13733;SDS011;43298;52.560;13.508;2023-03-01T05:03:23;21.27;;;20.38;;
13733;SDS011;43298;52.560;13.508;2023-03-01T05:05:50;20.92;;;19.98;;
13733;SDS011;43298;52.560;13.508;2023-03-01T05:08:17;20.25;;;19.45;;
13733;SDS011;43298;52.560;13.508;2023-03-01T05:10:49;21.83;;;20.92;;
13733;SDS011;43298;52.560;13.508;2023-03-01T05:13:18;20.05;;;19.25;;
13733;SDS011;43298;52.560;13.508;2023-03-01T05:15:53;19.48;;;18.67;;
13733;SDS011;43298;52.560;13.508;2023-03-01T05:18:21;20.80;;;19.92;;
13733;SDS011;43298;52.560;13.508;2023-03-01T05:20:51;20.00;;;19.20;;
13733;SDS011;43298;52.560;13.508;2023-03-01T05:23:21;20.83;;;19.92;;
13733;SDS011;43298;52.560;13.508;2023-03-01T05:25:50;22.10;;;21.20;;
13733;SDS011;43298;52.560;13.508;2023-03-01T05:28:17;21.23;;;20.33;;
13733;SDS011;43298;52.560;13.508;2023-03-01T05:30:45;21.43;;;20.53;;
13733;SDS011;43298;52.560;13.508;2023-03-01T05:33:11;20.80;;;19.90;;
13733;SDS011;43298;52.560;13.508;2023-03-01T05:35:43;21.23;;;20.33;;
13733;SDS011;43298;52.560;13.508;2023-03-01T05:38:11;20.50;;;19.67;;
13733;SDS011;43298;52.560;13.508;2023-03-01T05:40:44;21.73;;;20.83;;
13733;SDS011;43298;52.560;13.508;2023-03-01T05:43:13;22.23;;;21.33;;
13733;SDS011;43298;52.560;13.508;2023-03-01T05:45:41;19.65;;;18.85;;
13733;SDS011;43298;52.560;13.508;2023-03-01T05:48:08;21.88;;;20.98;;
13733;SDS011;43298;52.560;13.508;2023-03-01T05:50:36;21.33;;;20.42;;
13733;SDS011;43298;52.560;13.508;2023-03-01T05:53:11;21.67;;;20.77;;
13733;SDS011;43298;52.560;13.508;2023-03-01T05:55:44;22.52;;;21.63;;
13733;SDS011;43298;52.560;13.508;2023-03-01T05:58:13;22.75;;;21.83;;
13733;SDS011;43298;52.560;13.508;2023-03-01T06:00:42;21.90;;;21.00;;
13733;SDS011;43298;52.560;13.508;2023-03-01T06:03:10;23.33;;;22.23;;
13733;SDS011;43298;52.560;13.508;2023-03-01T06:05:38;21.42;;;20.52;;
13733;SDS011;43298;52.560;13.508;2023-03-01T06:08:05;21.52;;;20.63;;
13733;SDS011;43298;52.560;13.508;2023-03-01T06:10:31;21.63;;;20.73;;
13733;SDS011;43298;52.560;13.508;2023-03-01T06:12:57;20.90;;;20.00;;
13733;SDS011;43298;52.560;13.508;2023-03-01T06:15:24;21.55;;;20.65;;
13733;SDS011;43298;52.560;13.508;2023-03-01T06:17:50;21.17;;;20.27;;
13733;SDS011;43298;52.560;13.508;2023-03-01T06:20:20;21.08;;;20.17;;
13733;SDS011;43298;52.560;13.508;2023-03-01T06:22:49;22.77;;;21.63;;
13733;SDS011;43298;52.560;13.508;2023-03-01T06:25:16;19.75;;;18.95;;
13733;SDS011;43298;52.560;13.508;2023-03-01T06:27:45;21.38;;;20.48;;
13733;SDS011;43298;52.560;13.508;2023-03-01T06:30:12;20.85;;;19.95;;
13733;SDS011;43298;52.560;13.508;2023-03-01T06:32:42;20.73;;;19.83;;
13733;SDS011;43298;52.560;13.508;2023-03-01T06:35:09;19.95;;;19.15;;
13733;SDS011;43298;52.560;13.508;2023-03-01T06:37:36;19.20;;;18.40;;
13733;SDS011;43298;52.560;13.508;2023-03-01T06:40:03;19.13;;;18.33;;
13733;SDS011;43298;52.560;13.508;2023-03-01T06:42:33;19.52;;;18.73;;
13733;SDS011;43298;52.560;13.508;2023-03-01T06:45:03;18.90;;;18.10;;
13733;SDS011;43298;52.560;13.508;2023-03-01T06:47:31;19.90;;;19.10;;
13733;SDS011;43298;52.560;13.508;2023-03-01T06:50:01;19.90;;;19.10;;
13733;SDS011;43298;52.560;13.508;2023-03-01T06:52:28;18.73;;;17.92;;
13733;SDS011;43298;52.560;13.508;2023-03-01T06:54:54;18.88;;;18.08;;
13733;SDS011;43298;52.560;13.508;2023-03-01T06:57:20;18.67;;;17.88;;
13733;SDS011;43298;52.560;13.508;2023-03-01T06:59:46;18.75;;;17.95;;
13733;SDS011;43298;52.560;13.508;2023-03-01T07:02:12;18.77;;;17.98;;
13733;SDS011;43298;52.560;13.508;2023-03-01T07:04:40;19.60;;;18.80;;
13733;SDS011;43298;52.560;13.508;2023-03-01T07:07:07;19.30;;;18.50;;
13733;SDS011;43298;52.560;13.508;2023-03-01T07:09:33;17.55;;;16.85;;
13733;SDS011;43298;52.560;13.508;2023-03-01T07:11:58;18.10;;;17.30;;
13733;SDS011;43298;52.560;13.508;2023-03-01T07:14:25;16.25;;;15.55;;
13733;SDS011;43298;52.560;13.508;2023-03-01T07:16:51;16.13;;;15.43;;
13733;SDS011;43298;52.560;13.508;2023-03-01T07:19:18;15.05;;;14.45;;
13733;SDS011;43298;52.560;13.508;2023-03-01T07:21:44;17.98;;;17.20;;
13733;SDS011;43298;52.560;13.508;2023-03-01T07:24:10;16.42;;;15.73;;
13733;SDS011;43298;52.560;13.508;2023-03-01T07:26:36;15.73;;;15.02;;
13733;SDS011;43298;52.560;13.508;2023-03-01T07:29:03;15.95;;;15.25;;
13733;SDS011;43298;52.560;13.508;2023-03-01T07:31:31;15.65;;;14.85;;
13733;SDS011;43298;52.560;13.508;2023-03-01T07:33:57;17.27;;;16.02;;
13733;SDS011;43298;52.560;13.508;2023-03-01T07:36:23;14.85;;;14.15;;
13733;SDS011;43298;52.560;13.508;2023-03-01T07:38:49;16.88;;;16.08;;
13733;SDS011;43298;52.560;13.508;2023-03-01T07:41:16;18.48;;;17.65;;
13733;SDS011;43298;52.560;13.508;2023-03-01T07:43:42;16.98;;;16.15;;
13733;SDS011;43298;52.560;13.508;2023-03-01T07:46:08;16.45;;;15.55;;
13733;SDS011;43298;52.560;13.508;2023-03-01T07:48:34;15.20;;;14.30;;
13733;SDS011;43298;52.560;13.508;2023-03-01T07:51:00;15.07;;;14.38;;
13733;SDS011;43298;52.560;13.508;2023-03-01T07:53:29;15.25;;;14.25;;
13733;SDS011;43298;52.560;13.508;2023-03-01T07:56:00;15.93;;;15.00;;
13733;SDS011;43298;52.560;13.508;2023-03-01T07:58:35;16.15;;;15.35;;
13733;SDS011;43298;52.560;13.508;2023-03-01T08:01:04;17.42;;;16.48;;
13733;SDS011;43298;52.560;13.508;2023-03-01T08:03:32;15.40;;;14.50;;
13733;SDS011;43298;52.560;13.508;2023-03-01T08:05:59;25.73;;;15.82;;
13733;SDS011;43298;52.560;13.508;2023-03-01T08:08:26;14.43;;;13.73;;
13733;SDS011;43298;52.560;13.508;2023-03-01T08:10:56;12.27;;;11.77;;
13733;SDS011;43298;52.560;13.508;2023-03-01T08:13:23;13.35;;;12.35;;
13733;SDS011;43298;52.560;13.508;2023-03-01T08:15:49;13.95;;;13.15;;
13733;SDS011;43298;52.560;13.508;2023-03-01T08:18:15;13.70;;;13.00;;
13733;SDS011;43298;52.560;13.508;2023-03-01T08:20:42;15.13;;;14.07;;
13733;SDS011;43298;52.560;13.508;2023-03-01T08:23:08;13.77;;;12.80;;
13733;SDS011;43298;52.560;13.508;2023-03-01T08:25:34;11.93;;;11.32;;
13733;SDS011;43298;52.560;13.508;2023-03-01T08:28:00;11.75;;;11.15;;
13733;SDS011;43298;52.560;13.508;2023-03-01T08:30:26;11.60;;;10.95;;
13733;SDS011;43298;52.560;13.508;2023-03-01T08:32:52;10.93;;;10.43;;
13733;SDS011;43298;52.560;13.508;2023-03-01T08:35:18;11.88;;;11.07;;
13733;SDS011;43298;52.560;13.508;2023-03-01T08:37:45;13.23;;;12.43;;
13733;SDS011;43298;52.560;13.508;2023-03-01T08:40:11;11.18;;;10.68;;
13733;SDS011;43298;52.560;13.508;2023-03-01T08:42:38;11.85;;;11.13;;
13733;SDS011;43298;52.560;13.508;2023-03-01T08:45:07;10.65;;;10.25;;
13733;SDS011;43298;52.560;13.508;2023-03-01T08:47:34;11.05;;;10.25;;
13733;SDS011;43298;52.560;13.508;2023-03-01T08:50:01;12.82;;;12.23;;
13733;SDS011;43298;52.560;13.508;2023-03-01T08:52:27;11.55;;;11.05;;
13733;SDS011;43298;52.560;13.508;2023-03-01T08:54:53;11.00;;;10.50;;
13733;SDS011;43298;52.560;13.508;2023-03-01T08:57:19;12.93;;;12.13;;
13733;SDS011;43298;52.560;13.508;2023-03-01T08:59:45;11.98;;;11.48;;
13733;SDS011;43298;52.560;13.508;2023-03-01T09:02:15;11.60;;;11.10;;
13733;SDS011;43298;52.560;13.508;2023-03-01T09:04:43;10.90;;;10.40;;
13733;SDS011;43298;52.560;13.508;2023-03-01T09:07:09;10.90;;;10.40;;
13733;SDS011;43298;52.560;13.508;2023-03-01T09:09:36;11.60;;;10.85;;
13733;SDS011;43298;52.560;13.508;2023-03-01T09:12:02;10.45;;;10.05;;
13733;SDS011;43298;52.560;13.508;2023-03-01T09:14:29;11.13;;;10.55;;
13733;SDS011;43298;52.560;13.508;2023-03-01T09:16:55;11.93;;;11.32;;
13733;SDS011;43298;52.560;13.508;2023-03-01T09:19:21;10.40;;;9.90;;
13733;SDS011;43298;52.560;13.508;2023-03-01T09:21:47;11.10;;;10.60;;
13733;SDS011;43298;52.560;13.508;2023-03-01T09:24:22;11.20;;;10.70;;
13733;SDS011;43298;52.560;13.508;2023-03-01T09:26:49;11.27;;;10.57;;
13733;SDS011;43298;52.560;13.508;2023-03-01T09:29:17;10.90;;;10.40;;
13733;SDS011;43298;52.560;13.508;2023-03-01T09:31:43;12.45;;;11.75;;
13733;SDS011;43298;52.560;13.508;2023-03-01T09:34:09;11.80;;;11.20;;
13733;SDS011;43298;52.560;13.508;2023-03-01T09:36:35;11.30;;;10.80;;
13733;SDS011;43298;52.560;13.508;2023-03-01T09:39:02;10.70;;;10.20;;
13733;SDS011;43298;52.560;13.508;2023-03-01T09:44:25;11.50;;;11.00;;
13733;SDS011;43298;52.560;13.508;2023-03-01T09:47:17;10.80;;;10.30;;
13733;SDS011;43298;52.560;13.508;2023-03-01T09:50:32;11.23;;;10.57;;
13733;SDS011;43298;52.560;13.508;2023-03-01T09:55:29;12.30;;;11.70;;
13733;SDS011;43298;52.560;13.508;2023-03-01T10:01:16;10.10;;;9.70;;
13733;SDS011;43298;52.560;13.508;2023-03-01T10:07:24;9.73;;;9.32;;
13733;SDS011;43298;52.560;13.508;2023-03-01T10:10:08;9.27;;;8.88;;
13733;SDS011;43298;52.560;13.508;2023-03-01T10:12:41;9.57;;;9.07;;
13733;SDS011;43298;52.560;13.508;2023-03-01T10:15:19;10.57;;;9.82;;
13733;SDS011;43298;52.560;13.508;2023-03-01T10:18:03;10.07;;;9.65;;
13733;SDS011;43298;52.560;13.508;2023-03-01T10:23:30;10.48;;;9.75;;
13733;SDS011;43298;52.560;13.508;2023-03-01T10:26:11;10.80;;;10.30;;
13733;SDS011;43298;52.560;13.508;2023-03-01T10:31:37;11.70;;;11.20;;
13733;SDS011;43298;52.560;13.508;2023-03-01T10:34:12;10.93;;;10.43;;
13733;SDS011;43298;52.560;13.508;2023-03-01T10:36:55;10.35;;;9.85;;
13733;SDS011;43298;52.560;13.508;2023-03-01T10:39:34;9.38;;;8.98;;
13733;SDS011;43298;52.560;13.508;2023-03-01T10:44:45;10.15;;;9.65;;
13733;SDS011;43298;52.560;13.508;2023-03-01T10:47:15;10.63;;;10.05;;
13733;SDS011;43298;52.560;13.508;2023-03-01T10:50:00;10.73;;;10.25;;
13733;SDS011;43298;52.560;13.508;2023-03-01T10:52:32;10.55;;;9.95;;
13733;SDS011;43298;52.560;13.508;2023-03-01T10:55:04;8.90;;;8.52;;
13733;SDS011;43298;52.560;13.508;2023-03-01T10:58:07;9.18;;;8.77;;
13733;SDS011;43298;52.560;13.508;2023-03-01T11:03:17;9.38;;;8.98;;
13733;SDS011;43298;52.560;13.508;2023-03-01T11:13:57;10.63;;;10.18;;
13733;SDS011;43298;52.560;13.508;2023-03-01T11:16:42;9.50;;;9.10;;
13733;SDS011;43298;52.560;13.508;2023-03-01T11:21:42;9.73;;;9.32;;
13733;SDS011;43298;52.560;13.508;2023-03-01T11:24:17;10.70;;;10.13;;
13733;SDS011;43298;52.560;13.508;2023-03-01T11:27:03;10.10;;;9.68;;
13733;SDS011;43298;52.560;13.508;2023-03-01T11:29:37;10.43;;;10.02;;
13733;SDS011;43298;52.560;13.508;2023-03-01T11:32:08;9.98;;;9.38;;
13733;SDS011;43298;52.560;13.508;2023-03-01T11:35:13;9.57;;;9.18;;
13733;SDS011;43298;52.560;13.508;2023-03-01T11:37:44;8.77;;;8.38;;
13733;SDS011;43298;52.560;13.508;2023-03-01T11:41:02;9.15;;;8.75;;
13733;SDS011;43298;52.560;13.508;2023-03-01T11:43:45;9.85;;;9.35;;
13733;SDS011;43298;52.560;13.508;2023-03-01T11:49:57;8.70;;;8.30;;
13733;SDS011;43298;52.560;13.508;2023-03-01T11:58:49;8.88;;;8.48;;
13733;SDS011;43298;52.560;13.508;2023-03-01T12:02:00;9.27;;;8.80;;
13733;SDS011;43298;52.560;13.508;2023-03-01T12:26:36;9.82;;;9.23;;
13733;SDS011;43298;52.560;13.508;2023-03-01T12:44:29;10.30;;;9.80;;
13733;SDS011;43298;52.560;13.508;2023-03-01T12:50:14;9.68;;;9.27;;
13733;SDS011;43298;52.560;13.508;2023-03-01T12:52:55;10.65;;;10.15;;
13733;SDS011;43298;52.560;13.508;2023-03-01T13:12:41;10.68;;;10.18;;
13733;SDS011;43298;52.560;13.508;2023-03-01T13:20:19;10.98;;;10.48;;
13733;SDS011;43298;52.560;13.508;2023-03-01T13:23:00;10.48;;;9.98;;
13733;SDS011;43298;52.560;13.508;2023-03-01T13:25:27;9.82;;;9.40;;
13733;SDS011;43298;52.560;13.508;2023-03-01T13:27:53;9.88;;;9.38;;
13733;SDS011;43298;52.560;13.508;2023-03-01T13:30:56;9.90;;;9.35;;
13733;SDS011;43298;52.560;13.508;2023-03-01T13:35:59;11.10;;;10.35;;
13733;SDS011;43298;52.560;13.508;2023-03-01T13:49:27;10.77;;;10.25;;
13733;SDS011;43298;52.560;13.508;2023-03-01T13:52:00;9.77;;;9.27;;
13733;SDS011;43298;52.560;13.508;2023-03-01T13:54:31;9.02;;;8.63;;
13733;SDS011;43298;52.560;13.508;2023-03-01T13:56:58;9.23;;;8.82;;
13733;SDS011;43298;52.560;13.508;2023-03-01T13:59:25;8.70;;;8.30;;
13733;SDS011;43298;52.560;13.508;2023-03-01T14:02:01;9.60;;;9.10;;
13733;SDS011;43298;52.560;13.508;2023-03-01T14:04:31;9.65;;;8.85;;
13733;SDS011;43298;52.560;13.508;2023-03-01T14:09:44;9.48;;;9.07;;
13733;SDS011;43298;52.560;13.508;2023-03-01T14:15:31;8.65;;;8.25;;
13733;SDS011;43298;52.560;13.508;2023-03-01T14:20:58;9.13;;;8.73;;
13733;SDS011;43298;52.560;13.508;2023-03-01T14:23:24;9.40;;;9.00;;
13733;SDS011;43298;52.560;13.508;2023-03-01T14:25:55;9.60;;;8.98;;
13733;SDS011;43298;52.560;13.508;2023-03-01T14:28:24;8.38;;;7.97;;
13733;SDS011;43298;52.560;13.508;2023-03-01T14:30:56;8.52;;;8.20;;
13733;SDS011;43298;52.560;13.508;2023-03-01T14:33:25;10.07;;;9.57;;
13733;SDS011;43298;52.560;13.508;2023-03-01T14:36:02;9.38;;;8.98;;
13733;SDS011;43298;52.560;13.508;2023-03-01T14:40:58;9.77;;;9.27;;
13733;SDS011;43298;52.560;13.508;2023-03-01T14:43:31;10.57;;;9.45;;
13733;SDS011;43298;52.560;13.508;2023-03-01T14:45:57;11.85;;;11.15;;
13733;SDS011;43298;52.560;13.508;2023-03-01T14:48:23;9.52;;;9.13;;
13733;SDS011;43298;52.560;13.508;2023-03-01T14:50:51;10.32;;;9.82;;
13733;SDS011;43298;52.560;13.508;2023-03-01T14:53:27;10.43;;;10.02;;
13733;SDS011;43298;52.560;13.508;2023-03-01T14:55:55;9.73;;;9.32;;
13733;SDS011;43298;52.560;13.508;2023-03-01T14:58:28;10.13;;;9.73;;
13733;SDS011;43298;52.560;13.508;2023-03-01T15:00:59;11.50;;;10.95;;
13733;SDS011;43298;52.560;13.508;2023-03-01T15:03:36;12.20;;;11.50;;
13733;SDS011;43298;52.560;13.508;2023-03-01T15:06:08;10.10;;;9.60;;
13733;SDS011;43298;52.560;13.508;2023-03-01T15:08:37;11.00;;;10.38;;
13733;SDS011;43298;52.560;13.508;2023-03-01T15:13:58;10.43;;;9.93;;
13733;SDS011;43298;52.560;13.508;2023-03-01T15:16:29;9.82;;;9.23;;
13733;SDS011;43298;52.560;13.508;2023-03-01T15:19:02;10.32;;;9.93;;
13733;SDS011;43298;52.560;13.508;2023-03-01T15:24:16;8.52;;;8.13;;
13733;SDS011;43298;52.560;13.508;2023-03-01T15:29:23;9.50;;;9.10;;
13733;SDS011;43298;52.560;13.508;2023-03-01T15:31:59;8.82;;;8.43;;
13733;SDS011;43298;52.560;13.508;2023-03-01T15:34:55;9.50;;;9.00;;
13733;SDS011;43298;52.560;13.508;2023-03-01T15:40:22;9.13;;;8.73;;
13733;SDS011;43298;52.560;13.508;2023-03-01T15:43:00;9.55;;;9.15;;
13733;SDS011;43298;52.560;13.508;2023-03-01T15:45:29;9.13;;;8.73;;
13733;SDS011;43298;52.560;13.508;2023-03-01T15:48:02;9.55;;;9.15;;
13733;SDS011;43298;52.560;13.508;2023-03-01T15:50:55;10.13;;;9.68;;
13733;SDS011;43298;52.560;13.508;2023-03-01T15:53:23;9.57;;;9.18;;
13733;SDS011;43298;52.560;13.508;2023-03-01T15:55:49;9.95;;;9.45;;
13733;SDS011;43298;52.560;13.508;2023-03-01T15:58:23;9.45;;;9.05;;
13733;SDS011;43298;52.560;13.508;2023-03-01T16:00:50;9.25;;;8.75;;
13733;SDS011;43298;52.560;13.508;2023-03-01T16:03:21;9.73;;;9.32;;
13733;SDS011;43298;52.560;13.508;2023-03-01T16:05:48;9.93;;;9.38;;
13733;SDS011;43298;52.560;13.508;2023-03-01T16:08:15;9.80;;;9.40;;
13733;SDS011;43298;52.560;13.508;2023-03-01T16:10:43;9.75;;;9.35;;
13733;SDS011;43298;52.560;13.508;2023-03-01T16:13:10;10.45;;;9.95;;
13733;SDS011;43298;52.560;13.508;2023-03-01T16:15:37;10.25;;;9.77;;
13733;SDS011;43298;52.560;13.508;2023-03-01T16:18:04;9.95;;;9.52;;
13733;SDS011;43298;52.560;13.508;2023-03-01T16:20:32;11.88;;;9.18;;
13733;SDS011;43298;52.560;13.508;2023-03-01T16:23:00;11.00;;;10.40;;
13733;SDS011;43298;52.560;13.508;2023-03-01T16:25:32;9.65;;;9.25;;
13733;SDS011;43298;52.560;13.508;2023-03-01T16:27:59;10.95;;;10.45;;
13733;SDS011;43298;52.560;13.508;2023-03-01T16:30:29;9.88;;;9.48;;
13733;SDS011;43298;52.560;13.508;2023-03-01T16:32:55;10.77;;;10.30;;
13733;SDS011;43298;52.560;13.508;2023-03-01T16:35:21;10.55;;;10.15;;
13733;SDS011;43298;52.560;13.508;2023-03-01T16:37:48;10.65;;;10.23;;
13733;SDS011;43298;52.560;13.508;2023-03-01T16:42:50;11.38;;;10.88;;
13733;SDS011;43298;52.560;13.508;2023-03-01T16:45:16;11.35;;;10.75;;
13733;SDS011;43298;52.560;13.508;2023-03-01T16:47:43;11.20;;;10.70;;
13733;SDS011;43298;52.560;13.508;2023-03-01T16:50:09;11.10;;;10.60;;
13733;SDS011;43298;52.560;13.508;2023-03-01T16:52:35;10.68;;;10.23;;
13733;SDS011;43298;52.560;13.508;2023-03-01T16:55:02;10.38;;;9.95;;
13733;SDS011;43298;52.560;13.508;2023-03-01T16:57:30;10.18;;;9.77;;
13733;SDS011;43298;52.560;13.508;2023-03-01T16:59:58;11.98;;;11.15;;
13733;SDS011;43298;52.560;13.508;2023-03-01T17:02:24;11.00;;;10.50;;
13733;SDS011;43298;52.560;13.508;2023-03-01T17:04:53;12.02;;;11.43;;
13733;SDS011;43298;52.560;13.508;2023-03-01T17:07:20;12.20;;;11.70;;
13733;SDS011;43298;52.560;13.508;2023-03-01T17:09:47;13.02;;;12.43;;